sensor_id;sensor_type;location;lat;lon;timestamp;temperature;humidity
50758;DHT22;36732;47.980;11.652;2023-11-19T00:00:00;9.40;65.50
50758;DHT22;36732;47.980;11.652;2023-11-19T00:02:26;9.40;65.60
50758;DHT22;36732;47.980;11.652;2023-11-19T00:04:52;9.40;65.70
50758;DHT22;36732;47.980;11.652;2023-11-19T00:07:18;9.40;65.70
50758;DHT22;36732;47.980;11.652;2023-11-19T00:09:45;9.40;65.70
50758;DHT22;36732;47.980;11.652;2023-11-19T00:12:11;9.40;65.70
50758;DHT22;36732;47.980;11.652;2023-11-19T00:14:36;9.40;65.80
50758;DHT22;36732;47.980;11.652;2023-11-19T00:17:02;9.40;65.90
50758;DHT22;36732;47.980;11.652;2023-11-19T00:19:29;9.40;66.00
50758;DHT22;36732;47.980;11.652;2023-11-19T00:21:55;9.40;66.10
50758;DHT22;36732;47.980;11.652;2023-11-19T00:24:20;9.50;66.20
50758;DHT22;36732;47.980;11.652;2023-11-19T00:26:46;9.50;66.30
50758;DHT22;36732;47.980;11.652;2023-11-19T00:29:12;9.40;66.40
50758;DHT22;36732;47.980;11.652;2023-11-19T00:31:39;9.50;66.50
50758;DHT22;36732;47.980;11.652;2023-11-19T00:34:04;9.50;66.50
50758;DHT22;36732;47.980;11.652;2023-11-19T00:36:31;9.50;66.60
50758;DHT22;36732;47.980;11.652;2023-11-19T00:38:57;9.50;66.60
50758;DHT22;36732;47.980;11.652;2023-11-19T00:41:23;9.50;66.70
50758;DHT22;36732;47.980;11.652;2023-11-19T00:43:49;9.50;66.90
50758;DHT22;36732;47.980;11.652;2023-11-19T00:46:14;9.50;66.90
50758;DHT22;36732;47.980;11.652;2023-11-19T00:48:40;9.50;67.70
50758;DHT22;36732;47.980;11.652;2023-11-19T00:51:06;9.50;67.10
50758;DHT22;36732;47.980;11.652;2023-11-19T00:53:32;9.50;67.20
50758;DHT22;36732;47.980;11.652;2023-11-19T00:55:59;9.60;67.20
50758;DHT22;36732;47.980;11.652;2023-11-19T00:58:25;9.60;67.30
50758;DHT22;36732;47.980;11.652;2023-11-19T01:00:51;9.60;67.40
50758;DHT22;36732;47.980;11.652;2023-11-19T01:03:17;9.60;67.50
50758;DHT22;36732;47.980;11.652;2023-11-19T01:05:43;9.60;67.50
50758;DHT22;36732;47.980;11.652;2023-11-19T01:08:10;9.60;67.50
50758;DHT22;36732;47.980;11.652;2023-11-19T01:10:38;9.60;68.20
50758;DHT22;36732;47.980;11.652;2023-11-19T01:13:04;9.60;67.70
50758;DHT22;36732;47.980;11.652;2023-11-19T01:15:33;9.70;67.70
50758;DHT22;36732;47.980;11.652;2023-11-19T01:17:58;9.70;67.80
50758;DHT22;36732;47.980;11.652;2023-11-19T01:20:24;9.70;67.90
50758;DHT22;36732;47.980;11.652;2023-11-19T01:22:50;9.70;67.90
50758;DHT22;36732;47.980;11.652;2023-11-19T01:25:16;9.70;67.90
50758;DHT22;36732;47.980;11.652;2023-11-19T01:27:42;9.70;68.00
50758;DHT22;36732;47.980;11.652;2023-11-19T01:30:08;9.70;68.10
50758;DHT22;36732;47.980;11.652;2023-11-19T01:32:38;9.70;68.10
50758;DHT22;36732;47.980;11.652;2023-11-19T01:35:04;9.70;68.10
50758;DHT22;36732;47.980;11.652;2023-11-19T01:37:30;9.70;68.10
50758;DHT22;36732;47.980;11.652;2023-11-19T01:39:57;9.70;68.20
50758;DHT22;36732;47.980;11.652;2023-11-19T01:42:23;9.80;68.30
50758;DHT22;36732;47.980;11.652;2023-11-19T01:44:57;9.80;68.40
50758;DHT22;36732;47.980;11.652;2023-11-19T01:47:27;9.80;68.50
50758;DHT22;36732;47.980;11.652;2023-11-19T01:49:54;9.80;68.30
50758;DHT22;36732;47.980;11.652;2023-11-19T01:52:22;9.80;68.30
50758;DHT22;36732;47.980;11.652;2023-11-19T01:54:49;9.80;68.40
50758;DHT22;36732;47.980;11.652;2023-11-19T01:57:15;9.80;68.30
50758;DHT22;36732;47.980;11.652;2023-11-19T01:59:41;9.80;68.30
50758;DHT22;36732;47.980;11.652;2023-11-19T02:02:08;9.80;68.20
50758;DHT22;36732;47.980;11.652;2023-11-19T02:04:34;9.80;68.30
50758;DHT22;36732;47.980;11.652;2023-11-19T02:07:00;9.80;68.30
50758;DHT22;36732;47.980;11.652;2023-11-19T02:09:26;9.80;68.40
50758;DHT22;36732;47.980;11.652;2023-11-19T02:11:52;9.80;68.40
50758;DHT22;36732;47.980;11.652;2023-11-19T02:14:23;9.80;68.40
50758;DHT22;36732;47.980;11.652;2023-11-19T02:16:51;9.80;68.50
50758;DHT22;36732;47.980;11.652;2023-11-19T02:19:19;9.90;68.50
50758;DHT22;36732;47.980;11.652;2023-11-19T02:21:45;9.90;68.60
50758;DHT22;36732;47.980;11.652;2023-11-19T02:24:12;9.90;68.60
50758;DHT22;36732;47.980;11.652;2023-11-19T02:26:52;9.90;68.70
50758;DHT22;36732;47.980;11.652;2023-11-19T02:29:23;9.90;68.80
50758;DHT22;36732;47.980;11.652;2023-11-19T02:31:49;9.90;68.80
50758;DHT22;36732;47.980;11.652;2023-11-19T02:34:14;9.90;68.80
50758;DHT22;36732;47.980;11.652;2023-11-19T02:36:41;9.90;68.80
50758;DHT22;36732;47.980;11.652;2023-11-19T02:39:07;9.90;69.00
50758;DHT22;36732;47.980;11.652;2023-11-19T02:41:36;10.00;69.00
50758;DHT22;36732;47.980;11.652;2023-11-19T02:44:06;10.00;69.10
50758;DHT22;36732;47.980;11.652;2023-11-19T02:46:32;10.00;69.20
50758;DHT22;36732;47.980;11.652;2023-11-19T02:48:57;10.00;69.30
50758;DHT22;36732;47.980;11.652;2023-11-19T02:51:23;10.00;69.40
50758;DHT22;36732;47.980;11.652;2023-11-19T02:53:49;10.00;69.50
50758;DHT22;36732;47.980;11.652;2023-11-19T02:56:15;10.00;69.60
50758;DHT22;36732;47.980;11.652;2023-11-19T02:58:45;10.00;69.60
50758;DHT22;36732;47.980;11.652;2023-11-19T03:01:12;10.00;69.90
50758;DHT22;36732;47.980;11.652;2023-11-19T03:03:48;10.10;69.90
50758;DHT22;36732;47.980;11.652;2023-11-19T03:06:20;10.10;69.90
50758;DHT22;36732;47.980;11.652;2023-11-19T03:08:47;10.10;70.00
50758;DHT22;36732;47.980;11.652;2023-11-19T03:11:13;10.10;70.00
50758;DHT22;36732;47.980;11.652;2023-11-19T03:13:39;10.10;70.00
50758;DHT22;36732;47.980;11.652;2023-11-19T03:16:05;10.10;70.20
50758;DHT22;36732;47.980;11.652;2023-11-19T03:18:31;10.10;70.30
50758;DHT22;36732;47.980;11.652;2023-11-19T03:20:57;10.10;70.30
50758;DHT22;36732;47.980;11.652;2023-11-19T03:23:25;10.20;70.40
50758;DHT22;36732;47.980;11.652;2023-11-19T03:25:53;10.20;70.50
50758;DHT22;36732;47.980;11.652;2023-11-19T03:28:19;10.20;70.60
50758;DHT22;36732;47.980;11.652;2023-11-19T03:30:45;10.20;70.60
50758;DHT22;36732;47.980;11.652;2023-11-19T03:33:11;10.20;70.80
50758;DHT22;36732;47.980;11.652;2023-11-19T03:35:36;10.20;70.80
50758;DHT22;36732;47.980;11.652;2023-11-19T03:38:03;10.20;70.90
50758;DHT22;36732;47.980;11.652;2023-11-19T03:40:29;10.20;70.90
50758;DHT22;36732;47.980;11.652;2023-11-19T03:42:57;10.30;71.00
50758;DHT22;36732;47.980;11.652;2023-11-19T03:45:24;10.30;71.10
50758;DHT22;36732;47.980;11.652;2023-11-19T03:47:50;10.30;71.10
50758;DHT22;36732;47.980;11.652;2023-11-19T03:50:16;10.30;71.10
50758;DHT22;36732;47.980;11.652;2023-11-19T03:52:42;10.30;71.30
50758;DHT22;36732;47.980;11.652;2023-11-19T03:55:08;10.30;71.30
50758;DHT22;36732;47.980;11.652;2023-11-19T03:57:34;10.30;71.40
50758;DHT22;36732;47.980;11.652;2023-11-19T04:00:01;10.40;71.50
50758;DHT22;36732;47.980;11.652;2023-11-19T04:02:33;10.40;71.50
50758;DHT22;36732;47.980;11.652;2023-11-19T04:04:59;10.40;71.50
50758;DHT22;36732;47.980;11.652;2023-11-19T04:07:24;10.40;71.50
50758;DHT22;36732;47.980;11.652;2023-11-19T04:09:50;10.40;71.50
50758;DHT22;36732;47.980;11.652;2023-11-19T04:12:16;10.40;71.60
50758;DHT22;36732;47.980;11.652;2023-11-19T04:14:42;10.40;71.70
50758;DHT22;36732;47.980;11.652;2023-11-19T04:17:07;10.40;71.60
50758;DHT22;36732;47.980;11.652;2023-11-19T04:19:33;10.40;71.60
50758;DHT22;36732;47.980;11.652;2023-11-19T04:21:59;10.40;71.70
50758;DHT22;36732;47.980;11.652;2023-11-19T04:24:24;10.40;71.80
50758;DHT22;36732;47.980;11.652;2023-11-19T04:26:50;10.50;71.80
50758;DHT22;36732;47.980;11.652;2023-11-19T04:29:16;10.50;71.90
50758;DHT22;36732;47.980;11.652;2023-11-19T04:31:43;10.50;72.00
50758;DHT22;36732;47.980;11.652;2023-11-19T04:34:10;10.50;72.10
50758;DHT22;36732;47.980;11.652;2023-11-19T04:36:36;10.50;72.00
50758;DHT22;36732;47.980;11.652;2023-11-19T04:39:03;10.50;72.10
50758;DHT22;36732;47.980;11.652;2023-11-19T04:41:35;10.50;72.20
50758;DHT22;36732;47.980;11.652;2023-11-19T04:44:01;10.50;72.20
50758;DHT22;36732;47.980;11.652;2023-11-19T04:46:27;10.50;72.20
50758;DHT22;36732;47.980;11.652;2023-11-19T04:48:53;10.60;72.40
50758;DHT22;36732;47.980;11.652;2023-11-19T04:51:18;10.60;72.40
50758;DHT22;36732;47.980;11.652;2023-11-19T04:53:44;10.60;72.50
50758;DHT22;36732;47.980;11.652;2023-11-19T04:56:11;10.60;72.60
50758;DHT22;36732;47.980;11.652;2023-11-19T04:58:37;10.60;72.90
50758;DHT22;36732;47.980;11.652;2023-11-19T05:01:03;10.60;72.80
50758;DHT22;36732;47.980;11.652;2023-11-19T05:03:30;10.60;72.70
50758;DHT22;36732;47.980;11.652;2023-11-19T05:05:57;10.60;72.90
50758;DHT22;36732;47.980;11.652;2023-11-19T05:08:23;10.70;72.90
50758;DHT22;36732;47.980;11.652;2023-11-19T05:10:49;10.70;73.00
50758;DHT22;36732;47.980;11.652;2023-11-19T05:13:14;10.70;72.90
50758;DHT22;36732;47.980;11.652;2023-11-19T05:15:40;10.70;72.90
50758;DHT22;36732;47.980;11.652;2023-11-19T05:18:06;10.70;73.00
50758;DHT22;36732;47.980;11.652;2023-11-19T05:20:32;10.70;73.10
50758;DHT22;36732;47.980;11.652;2023-11-19T05:22:58;10.80;73.30
50758;DHT22;36732;47.980;11.652;2023-11-19T05:25:26;10.80;73.20
50758;DHT22;36732;47.980;11.652;2023-11-19T05:27:52;10.80;73.30
50758;DHT22;36732;47.980;11.652;2023-11-19T05:30:18;10.80;73.20
50758;DHT22;36732;47.980;11.652;2023-11-19T05:32:44;10.80;73.30
50758;DHT22;36732;47.980;11.652;2023-11-19T05:35:11;10.80;73.20
50758;DHT22;36732;47.980;11.652;2023-11-19T05:37:37;10.80;73.30
50758;DHT22;36732;47.980;11.652;2023-11-19T05:40:03;10.80;73.40
50758;DHT22;36732;47.980;11.652;2023-11-19T05:42:33;10.80;73.50
50758;DHT22;36732;47.980;11.652;2023-11-19T05:44:59;10.90;73.50
50758;DHT22;36732;47.980;11.652;2023-11-19T05:47:25;10.90;73.50
50758;DHT22;36732;47.980;11.652;2023-11-19T05:49:50;10.90;73.60
50758;DHT22;36732;47.980;11.652;2023-11-19T05:52:16;10.90;73.50
50758;DHT22;36732;47.980;11.652;2023-11-19T05:54:42;10.90;73.60
50758;DHT22;36732;47.980;11.652;2023-11-19T05:57:07;10.90;73.60
50758;DHT22;36732;47.980;11.652;2023-11-19T05:59:35;10.90;73.60
50758;DHT22;36732;47.980;11.652;2023-11-19T06:02:02;10.90;73.60
50758;DHT22;36732;47.980;11.652;2023-11-19T06:04:28;10.90;73.60
50758;DHT22;36732;47.980;11.652;2023-11-19T06:06:54;11.00;73.70
50758;DHT22;36732;47.980;11.652;2023-11-19T06:09:20;11.00;73.80
50758;DHT22;36732;47.980;11.652;2023-11-19T06:11:49;11.00;73.80
50758;DHT22;36732;47.980;11.652;2023-11-19T06:14:16;11.00;73.90
50758;DHT22;36732;47.980;11.652;2023-11-19T06:16:42;11.00;74.00
50758;DHT22;36732;47.980;11.652;2023-11-19T06:19:07;11.00;73.90
50758;DHT22;36732;47.980;11.652;2023-11-19T06:21:33;11.00;74.00
50758;DHT22;36732;47.980;11.652;2023-11-19T06:24:01;11.00;74.00
50758;DHT22;36732;47.980;11.652;2023-11-19T06:26:27;11.00;74.00
50758;DHT22;36732;47.980;11.652;2023-11-19T06:28:52;11.10;74.00
50758;DHT22;36732;47.980;11.652;2023-11-19T06:31:18;11.10;74.50
50758;DHT22;36732;47.980;11.652;2023-11-19T06:33:44;11.10;74.00
50758;DHT22;36732;47.980;11.652;2023-11-19T06:36:09;11.10;74.00
50758;DHT22;36732;47.980;11.652;2023-11-19T06:38:35;11.10;74.00
50758;DHT22;36732;47.980;11.652;2023-11-19T06:41:01;11.10;74.10
50758;DHT22;36732;47.980;11.652;2023-11-19T06:43:27;11.10;74.20
50758;DHT22;36732;47.980;11.652;2023-11-19T06:45:54;11.10;74.20
50758;DHT22;36732;47.980;11.652;2023-11-19T06:48:20;11.10;74.10
50758;DHT22;36732;47.980;11.652;2023-11-19T06:50:45;11.10;74.20
50758;DHT22;36732;47.980;11.652;2023-11-19T06:53:11;11.20;74.30
50758;DHT22;36732;47.980;11.652;2023-11-19T06:55:37;11.20;74.30
50758;DHT22;36732;47.980;11.652;2023-11-19T06:58:03;11.20;74.30
50758;DHT22;36732;47.980;11.652;2023-11-19T07:00:29;11.20;74.30
50758;DHT22;36732;47.980;11.652;2023-11-19T07:02:58;11.20;74.30
50758;DHT22;36732;47.980;11.652;2023-11-19T07:05:24;11.20;74.30
50758;DHT22;36732;47.980;11.652;2023-11-19T07:07:50;11.20;74.30
50758;DHT22;36732;47.980;11.652;2023-11-19T07:10:16;11.20;74.40
50758;DHT22;36732;47.980;11.652;2023-11-19T07:12:41;11.20;74.40
50758;DHT22;36732;47.980;11.652;2023-11-19T07:15:07;11.20;74.40
50758;DHT22;36732;47.980;11.652;2023-11-19T07:17:38;11.20;74.40
50758;DHT22;36732;47.980;11.652;2023-11-19T07:20:05;11.20;74.40
50758;DHT22;36732;47.980;11.652;2023-11-19T07:22:31;11.30;74.50
50758;DHT22;36732;47.980;11.652;2023-11-19T07:24:57;11.30;74.40
50758;DHT22;36732;47.980;11.652;2023-11-19T07:27:23;11.30;74.50
50758;DHT22;36732;47.980;11.652;2023-11-19T07:29:50;11.30;74.40
50758;DHT22;36732;47.980;11.652;2023-11-19T07:32:16;11.30;74.50
50758;DHT22;36732;47.980;11.652;2023-11-19T07:34:42;11.30;74.60
50758;DHT22;36732;47.980;11.652;2023-11-19T07:37:07;11.30;74.60
50758;DHT22;36732;47.980;11.652;2023-11-19T07:39:33;11.30;74.60
50758;DHT22;36732;47.980;11.652;2023-11-19T07:42:00;11.30;74.60
50758;DHT22;36732;47.980;11.652;2023-11-19T07:44:26;11.30;74.60
50758;DHT22;36732;47.980;11.652;2023-11-19T07:46:52;11.30;74.60
50758;DHT22;36732;47.980;11.652;2023-11-19T07:49:17;11.30;74.70
50758;DHT22;36732;47.980;11.652;2023-11-19T07:51:43;11.30;74.80
50758;DHT22;36732;47.980;11.652;2023-11-19T07:54:09;11.40;74.80
50758;DHT22;36732;47.980;11.652;2023-11-19T07:56:34;11.40;74.90
50758;DHT22;36732;47.980;11.652;2023-11-19T07:59:01;11.40;74.90
50758;DHT22;36732;47.980;11.652;2023-11-19T08:01:27;11.40;75.10
50758;DHT22;36732;47.980;11.652;2023-11-19T08:03:53;11.40;75.10
50758;DHT22;36732;47.980;11.652;2023-11-19T08:06:19;11.40;75.00
50758;DHT22;36732;47.980;11.652;2023-11-19T08:08:45;11.40;75.10
50758;DHT22;36732;47.980;11.652;2023-11-19T08:11:10;11.40;75.10
50758;DHT22;36732;47.980;11.652;2023-11-19T08:13:36;11.40;75.10
50758;DHT22;36732;47.980;11.652;2023-11-19T08:16:02;11.50;75.30
50758;DHT22;36732;47.980;11.652;2023-11-19T08:18:28;11.50;75.20
50758;DHT22;36732;47.980;11.652;2023-11-19T08:20:53;11.50;75.10
50758;DHT22;36732;47.980;11.652;2023-11-19T08:23:20;11.50;75.20
50758;DHT22;36732;47.980;11.652;2023-11-19T08:25:46;11.50;75.20
50758;DHT22;36732;47.980;11.652;2023-11-19T08:28:12;11.50;75.10
50758;DHT22;36732;47.980;11.652;2023-11-19T08:30:37;11.50;75.20
50758;DHT22;36732;47.980;11.652;2023-11-19T08:33:03;11.60;75.20
50758;DHT22;36732;47.980;11.652;2023-11-19T08:35:31;11.60;75.20
50758;DHT22;36732;47.980;11.652;2023-11-19T08:37:57;11.60;75.10
50758;DHT22;36732;47.980;11.652;2023-11-19T08:40:24;11.60;75.20
50758;DHT22;36732;47.980;11.652;2023-11-19T08:42:51;11.60;75.20
50758;DHT22;36732;47.980;11.652;2023-11-19T08:45:17;11.60;75.20
50758;DHT22;36732;47.980;11.652;2023-11-19T08:47:43;11.60;75.20
50758;DHT22;36732;47.980;11.652;2023-11-19T08:50:11;11.60;75.20
50758;DHT22;36732;47.980;11.652;2023-11-19T08:52:37;11.60;75.10
50758;DHT22;36732;47.980;11.652;2023-11-19T08:55:02;11.70;75.20
50758;DHT22;36732;47.980;11.652;2023-11-19T08:57:31;11.70;75.20
50758;DHT22;36732;47.980;11.652;2023-11-19T08:59:58;11.70;75.30
50758;DHT22;36732;47.980;11.652;2023-11-19T09:02:23;11.70;75.30
50758;DHT22;36732;47.980;11.652;2023-11-19T09:04:49;11.70;75.40
50758;DHT22;36732;47.980;11.652;2023-11-19T09:07:15;11.70;75.40
50758;DHT22;36732;47.980;11.652;2023-11-19T09:09:40;11.70;75.30
50758;DHT22;36732;47.980;11.652;2023-11-19T09:12:06;11.70;75.40
50758;DHT22;36732;47.980;11.652;2023-11-19T09:14:32;11.70;75.30
50758;DHT22;36732;47.980;11.652;2023-11-19T09:16:58;11.80;75.30
50758;DHT22;36732;47.980;11.652;2023-11-19T09:19:24;11.80;75.40
50758;DHT22;36732;47.980;11.652;2023-11-19T09:21:52;11.80;75.40
50758;DHT22;36732;47.980;11.652;2023-11-19T09:24:18;11.80;75.40
50758;DHT22;36732;47.980;11.652;2023-11-19T09:26:44;11.80;75.30
50758;DHT22;36732;47.980;11.652;2023-11-19T09:29:10;11.80;75.30
50758;DHT22;36732;47.980;11.652;2023-11-19T09:31:38;11.80;75.30
50758;DHT22;36732;47.980;11.652;2023-11-19T09:34:04;11.80;75.40
50758;DHT22;36732;47.980;11.652;2023-11-19T09:36:30;11.80;75.30
50758;DHT22;36732;47.980;11.652;2023-11-19T09:38:56;11.80;75.40
50758;DHT22;36732;47.980;11.652;2023-11-19T09:41:23;11.90;75.60
50758;DHT22;36732;47.980;11.652;2023-11-19T09:43:50;11.90;75.50
50758;DHT22;36732;47.980;11.652;2023-11-19T09:46:16;11.90;75.50
50758;DHT22;36732;47.980;11.652;2023-11-19T09:48:42;11.90;75.40
50758;DHT22;36732;47.980;11.652;2023-11-19T09:51:09;11.90;75.60
50758;DHT22;36732;47.980;11.652;2023-11-19T09:53:36;11.90;75.60
50758;DHT22;36732;47.980;11.652;2023-11-19T09:56:06;11.90;75.60
50758;DHT22;36732;47.980;11.652;2023-11-19T09:58:33;12.00;75.70
50758;DHT22;36732;47.980;11.652;2023-11-19T10:01:00;12.00;75.50
50758;DHT22;36732;47.980;11.652;2023-11-19T10:03:35;12.00;75.50
50758;DHT22;36732;47.980;11.652;2023-11-19T10:06:06;12.00;75.80
50758;DHT22;36732;47.980;11.652;2023-11-19T10:08:33;12.00;75.60
50758;DHT22;36732;47.980;11.652;2023-11-19T10:11:01;12.00;75.50
50758;DHT22;36732;47.980;11.652;2023-11-19T10:13:28;12.00;75.50
50758;DHT22;36732;47.980;11.652;2023-11-19T10:15:55;12.00;75.60
50758;DHT22;36732;47.980;11.652;2023-11-19T10:18:26;12.00;75.60
50758;DHT22;36732;47.980;11.652;2023-11-19T10:20:53;12.10;75.80
50758;DHT22;36732;47.980;11.652;2023-11-19T10:23:20;12.00;75.70
50758;DHT22;36732;47.980;11.652;2023-11-19T10:25:46;12.10;75.70
50758;DHT22;36732;47.980;11.652;2023-11-19T10:28:11;12.10;75.70
50758;DHT22;36732;47.980;11.652;2023-11-19T10:30:41;12.10;75.80
50758;DHT22;36732;47.980;11.652;2023-11-19T10:33:13;12.10;75.80
50758;DHT22;36732;47.980;11.652;2023-11-19T10:35:53;12.10;75.90
50758;DHT22;36732;47.980;11.652;2023-11-19T10:38:20;12.10;76.00
50758;DHT22;36732;47.980;11.652;2023-11-19T10:40:50;12.20;75.80
50758;DHT22;36732;47.980;11.652;2023-11-19T10:43:19;12.20;75.90
50758;DHT22;36732;47.980;11.652;2023-11-19T10:45:48;12.20;76.00
50758;DHT22;36732;47.980;11.652;2023-11-19T10:48:14;12.20;75.90
50758;DHT22;36732;47.980;11.652;2023-11-19T10:50:41;12.20;75.80
50758;DHT22;36732;47.980;11.652;2023-11-19T10:53:09;12.20;75.90
50758;DHT22;36732;47.980;11.652;2023-11-19T10:55:38;12.20;75.90
50758;DHT22;36732;47.980;11.652;2023-11-19T10:58:06;12.20;75.80
50758;DHT22;36732;47.980;11.652;2023-11-19T11:00:57;12.20;75.80
50758;DHT22;36732;47.980;11.652;2023-11-19T11:03:25;12.30;76.10
50758;DHT22;36732;47.980;11.652;2023-11-19T11:05:53;12.30;75.70
50758;DHT22;36732;47.980;11.652;2023-11-19T11:08:20;12.30;76.00
50758;DHT22;36732;47.980;11.652;2023-11-19T11:10:48;12.30;76.00
50758;DHT22;36732;47.980;11.652;2023-11-19T11:13:24;12.30;76.10
50758;DHT22;36732;47.980;11.652;2023-11-19T11:15:51;12.30;76.00
50758;DHT22;36732;47.980;11.652;2023-11-19T11:18:17;12.30;76.00
50758;DHT22;36732;47.980;11.652;2023-11-19T11:20:47;12.30;76.00
50758;DHT22;36732;47.980;11.652;2023-11-19T11:37:35;12.40;76.30
50758;DHT22;36732;47.980;11.652;2023-11-19T11:40:03;12.40;76.10
50758;DHT22;36732;47.980;11.652;2023-11-19T11:42:36;12.50;76.10
50758;DHT22;36732;47.980;11.652;2023-11-19T11:50:18;12.50;76.30
50758;DHT22;36732;47.980;11.652;2023-11-19T11:55:34;12.50;76.40
50758;DHT22;36732;47.980;11.652;2023-11-19T11:58:05;12.50;76.00
50758;DHT22;36732;47.980;11.652;2023-11-19T12:00:38;12.50;75.90
50758;DHT22;36732;47.980;11.652;2023-11-19T12:03:06;12.50;76.00
50758;DHT22;36732;47.980;11.652;2023-11-19T12:05:38;12.60;76.00
50758;DHT22;36732;47.980;11.652;2023-11-19T12:08:07;12.60;76.20
50758;DHT22;36732;47.980;11.652;2023-11-19T12:10:46;12.60;76.00
50758;DHT22;36732;47.980;11.652;2023-11-19T12:13:13;12.60;76.80
50758;DHT22;36732;47.980;11.652;2023-11-19T12:18:27;12.60;76.40
50758;DHT22;36732;47.980;11.652;2023-11-19T12:20:54;12.60;76.00
50758;DHT22;36732;47.980;11.652;2023-11-19T12:23:21;12.60;75.80
50758;DHT22;36732;47.980;11.652;2023-11-19T12:25:47;12.60;75.70
50758;DHT22;36732;47.980;11.652;2023-11-19T12:28:16;12.60;75.90
50758;DHT22;36732;47.980;11.652;2023-11-19T12:30:43;12.60;75.80
50758;DHT22;36732;47.980;11.652;2023-11-19T12:33:13;12.60;75.70
50758;DHT22;36732;47.980;11.652;2023-11-19T12:35:40;12.60;75.60
50758;DHT22;36732;47.980;11.652;2023-11-19T12:38:07;12.60;75.70
50758;DHT22;36732;47.980;11.652;2023-11-19T12:40:33;12.60;75.60
50758;DHT22;36732;47.980;11.652;2023-11-19T12:42:59;12.60;75.60
50758;DHT22;36732;47.980;11.652;2023-11-19T12:45:37;12.60;75.70
50758;DHT22;36732;47.980;11.652;2023-11-19T12:48:05;12.60;76.00
50758;DHT22;36732;47.980;11.652;2023-11-19T12:50:54;12.70;75.70
50758;DHT22;36732;47.980;11.652;2023-11-19T12:53:21;12.70;75.90
50758;DHT22;36732;47.980;11.652;2023-11-19T12:55:48;12.70;75.70
50758;DHT22;36732;47.980;11.652;2023-11-19T13:01:06;12.70;76.10
50758;DHT22;36732;47.980;11.652;2023-11-19T13:03:33;12.70;76.10
50758;DHT22;36732;47.980;11.652;2023-11-19T13:06:05;12.70;75.80
50758;DHT22;36732;47.980;11.652;2023-11-19T13:08:44;12.70;75.90
50758;DHT22;36732;47.980;11.652;2023-11-19T13:11:11;12.70;76.20
50758;DHT22;36732;47.980;11.652;2023-11-19T13:13:58;12.70;75.90
50758;DHT22;36732;47.980;11.652;2023-11-19T13:16:29;12.70;76.30
50758;DHT22;36732;47.980;11.652;2023-11-19T13:18:56;12.70;75.90
50758;DHT22;36732;47.980;11.652;2023-11-19T13:21:22;12.70;75.90
50758;DHT22;36732;47.980;11.652;2023-11-19T13:23:49;12.70;76.00
50758;DHT22;36732;47.980;11.652;2023-11-19T13:26:15;12.70;76.00
50758;DHT22;36732;47.980;11.652;2023-11-19T13:28:41;12.70;76.00
50758;DHT22;36732;47.980;11.652;2023-11-19T13:31:06;12.80;76.00
50758;DHT22;36732;47.980;11.652;2023-11-19T13:33:33;12.80;75.90
50758;DHT22;36732;47.980;11.652;2023-11-19T13:35:59;12.70;75.80
50758;DHT22;36732;47.980;11.652;2023-11-19T13:38:31;12.80;75.80
50758;DHT22;36732;47.980;11.652;2023-11-19T13:40:58;12.80;75.80
50758;DHT22;36732;47.980;11.652;2023-11-19T13:43:24;12.80;75.80
50758;DHT22;36732;47.980;11.652;2023-11-19T13:45:50;12.80;75.90
50758;DHT22;36732;47.980;11.652;2023-11-19T13:48:18;12.80;75.80
50758;DHT22;36732;47.980;11.652;2023-11-19T13:50:44;12.80;75.80
50758;DHT22;36732;47.980;11.652;2023-11-19T13:53:10;12.80;75.90
50758;DHT22;36732;47.980;11.652;2023-11-19T13:55:36;12.80;76.00
50758;DHT22;36732;47.980;11.652;2023-11-19T13:58:01;12.80;75.90
50758;DHT22;36732;47.980;11.652;2023-11-19T14:00:27;12.80;75.90
50758;DHT22;36732;47.980;11.652;2023-11-19T14:02:53;12.80;75.90
50758;DHT22;36732;47.980;11.652;2023-11-19T14:05:19;12.80;75.90
50758;DHT22;36732;47.980;11.652;2023-11-19T14:07:45;12.80;75.90
50758;DHT22;36732;47.980;11.652;2023-11-19T14:10:14;12.80;75.90
50758;DHT22;36732;47.980;11.652;2023-11-19T14:12:40;12.80;75.90
50758;DHT22;36732;47.980;11.652;2023-11-19T14:15:08;12.80;76.00
50758;DHT22;36732;47.980;11.652;2023-11-19T14:17:41;12.80;76.00
50758;DHT22;36732;47.980;11.652;2023-11-19T14:20:07;12.80;75.90
50758;DHT22;36732;47.980;11.652;2023-11-19T14:22:39;12.80;76.00
50758;DHT22;36732;47.980;11.652;2023-11-19T14:25:05;12.90;76.10
50758;DHT22;36732;47.980;11.652;2023-11-19T14:27:39;12.80;76.10
50758;DHT22;36732;47.980;11.652;2023-11-19T14:30:06;12.90;76.00
50758;DHT22;36732;47.980;11.652;2023-11-19T14:32:35;12.90;76.10
50758;DHT22;36732;47.980;11.652;2023-11-19T14:35:01;12.90;76.00
50758;DHT22;36732;47.980;11.652;2023-11-19T14:37:26;12.90;76.00
50758;DHT22;36732;47.980;11.652;2023-11-19T14:39:52;12.90;76.00
50758;DHT22;36732;47.980;11.652;2023-11-19T14:42:18;12.90;76.00
50758;DHT22;36732;47.980;11.652;2023-11-19T14:44:43;12.90;75.90
50758;DHT22;36732;47.980;11.652;2023-11-19T14:47:09;12.90;75.80
50758;DHT22;36732;47.980;11.652;2023-11-19T14:49:35;12.90;75.80
50758;DHT22;36732;47.980;11.652;2023-11-19T14:52:03;12.90;75.80
50758;DHT22;36732;47.980;11.652;2023-11-19T14:54:29;12.90;75.70
50758;DHT22;36732;47.980;11.652;2023-11-19T14:56:56;12.90;75.70
50758;DHT22;36732;47.980;11.652;2023-11-19T14:59:22;12.90;75.70
50758;DHT22;36732;47.980;11.652;2023-11-19T15:01:47;12.90;75.60
50758;DHT22;36732;47.980;11.652;2023-11-19T15:04:13;12.90;75.60
50758;DHT22;36732;47.980;11.652;2023-11-19T15:06:39;12.90;75.70
50758;DHT22;36732;47.980;11.652;2023-11-19T15:09:04;12.90;75.70
50758;DHT22;36732;47.980;11.652;2023-11-19T15:11:33;12.90;76.10
50758;DHT22;36732;47.980;11.652;2023-11-19T15:13:58;12.90;76.30
50758;DHT22;36732;47.980;11.652;2023-11-19T15:16:25;12.90;75.70
50758;DHT22;36732;47.980;11.652;2023-11-19T15:18:57;12.90;75.70
50758;DHT22;36732;47.980;11.652;2023-11-19T15:21:25;12.90;75.90
50758;DHT22;36732;47.980;11.652;2023-11-19T15:23:52;12.90;75.80
50758;DHT22;36732;47.980;11.652;2023-11-19T15:26:18;12.90;75.80
50758;DHT22;36732;47.980;11.652;2023-11-19T15:28:44;12.90;75.70
50758;DHT22;36732;47.980;11.652;2023-11-19T15:31:10;12.90;75.70
50758;DHT22;36732;47.980;11.652;2023-11-19T15:33:36;12.90;75.70
50758;DHT22;36732;47.980;11.652;2023-11-19T15:36:01;12.90;75.80
50758;DHT22;36732;47.980;11.652;2023-11-19T15:38:33;12.90;75.80
50758;DHT22;36732;47.980;11.652;2023-11-19T15:40:59;12.90;75.90
50758;DHT22;36732;47.980;11.652;2023-11-19T15:43:25;12.90;75.90